Portada
METAR-TAF:

METAR-TAF

Aeroports :

Illes Wake, Estats Units d'Amèrica

latitud: 19-17N, longitud: 166-39E, altitud: 4 m

Observació

L'informe es va fer fa 34 minuts, a les 00:58 UTC
Vent 5 kt del Est
Temperatura 32°C
Humitat 63%
Pressió 1008 hPa
Visibilitat 10 km o més
Cel clar

METAR: PWAK 210058Z AUTO 10005KT 9999 CLR 32/24 A2977 RMK AO2 SLP087 T03180242 $

Hora: 13:32 (01:32 UTC)

Pronòstic

L'informe es va fer fa 3 hores i 32 minuts, a les 22:00 UTC
Pronòstic vàlid del 20 a les 22 UTC al 22 a les 04 UTC
Vent 9 kt del Est
Visibilitat 10 km o més
Escasses núvols a una alçada de 3000 ft
Evolucionant progressivament
l' 21 a les 08 UTC al 21 a les 09 UTC
Vent 6 kt amb direcció variable
Visibilitat: 8000 m
Núvols disperses a una alçada de 2500 ft
xàfecs de pluja

TAF: PWAK 202200Z 2022/2204 09009KT 9999 FEW030 QNH2970INS BECMG 2108/2109 VRB06KT 8000 -SHRA SCT025 QNH2973INS TX31/2102Z TN27/2118Z FOR MIL USE ONLY

Observacions i pronòstics meteorològics de més de 4000 aeroports (METAR i TAF).

Les estacions disponibles són els punts grocs i vermells al mapa.

Posi el ratolí al punt desitjat per veure el nom de l'estació.

Feu clic per veure les observacions i els pronòstics meteorològics.

Per canviar el mapa: feu clic els botons verds amb una creu de color negre per apropar; al botó verd amb un guió per allunyar la imatge; o en les fletxes verdes per a mapes adjacents.


METAR-TAF: